createdAt,value
2018-09-24T00:01:41.893Z,100122.00
2018-09-24T00:04:09.730Z,100130.00
2018-09-24T00:06:37.572Z,100139.00
2018-09-24T00:09:07.816Z,100161.00
2018-09-24T00:11:35.952Z,100156.00
2018-09-24T00:14:03.768Z,100161.00
2018-09-24T00:16:31.660Z,100154.00
2018-09-24T00:18:59.396Z,100168.00
2018-09-24T00:21:27.410Z,100178.00
2018-09-24T00:23:55.225Z,100183.00
2018-09-24T00:26:22.986Z,100188.00
2018-09-24T00:28:50.773Z,100189.00
2018-09-24T00:31:18.541Z,100212.00
2018-09-24T00:33:46.360Z,100209.00
2018-09-24T00:36:14.161Z,100221.00
2018-09-24T00:38:42.077Z,100224.00
2018-09-24T00:41:09.909Z,100214.00
2018-09-24T00:43:38.824Z,100214.00
2018-09-24T00:46:05.946Z,100230.00
2018-09-24T00:48:33.688Z,100236.00
2018-09-24T00:51:01.599Z,100240.00
2018-09-24T00:53:29.412Z,100238.00
2018-09-24T00:55:57.284Z,100243.00
2018-09-24T00:58:25.142Z,100256.00
2018-09-24T01:00:52.954Z,100252.00
2018-09-24T01:03:20.789Z,100253.00
2018-09-24T01:05:48.639Z,100260.00
2018-09-24T01:08:16.366Z,100267.00
2018-09-24T01:10:44.144Z,100260.00
2018-09-24T01:13:11.959Z,100256.00
2018-09-24T01:15:39.881Z,100262.00
2018-09-24T01:18:07.625Z,100268.00
2018-09-24T01:20:35.380Z,100277.00
2018-09-24T01:23:03.236Z,100272.00
2018-09-24T01:25:31.079Z,100287.00
2018-09-24T01:27:58.975Z,100295.00
2018-09-24T01:30:26.831Z,100310.00
2018-09-24T01:33:01.424Z,100304.00
2018-09-24T01:35:29.326Z,100309.00
2018-09-24T01:37:57.056Z,100318.00
2018-09-24T01:40:24.891Z,100314.00
2018-09-24T01:42:52.628Z,100317.00
2018-09-24T01:45:20.392Z,100326.00
2018-09-24T01:47:48.177Z,100341.00
2018-09-24T01:50:15.941Z,100349.00
2018-09-24T01:52:43.781Z,100355.00
2018-09-24T01:55:11.588Z,100351.00
2018-09-24T01:57:39.332Z,100354.00
2018-09-24T02:00:07.225Z,100363.00
2018-09-24T02:02:35.038Z,100369.00
2018-09-24T02:05:02.800Z,100365.00
2018-09-24T02:07:30.577Z,100374.00
2018-09-24T02:09:58.394Z,100389.00
2018-09-24T02:12:26.163Z,100392.00
2018-09-24T02:14:53.958Z,100394.00
2018-09-24T02:17:22.582Z,100407.00
2018-09-24T02:19:51.072Z,100410.00
2018-09-24T02:22:26.584Z,100417.00
2018-09-24T02:24:55.400Z,100428.00
2018-09-24T02:27:23.232Z,100430.00
2018-09-24T02:29:50.993Z,100435.00
2018-09-24T02:32:18.909Z,100433.00
2018-09-24T02:34:47.721Z,100435.00
2018-09-24T02:37:16.391Z,100442.00
2018-09-24T02:39:44.234Z,100449.00
2018-09-24T02:42:12.057Z,100456.00
2018-09-24T02:44:39.815Z,100457.00
2018-09-24T02:47:07.637Z,100459.00
2018-09-24T02:49:35.442Z,100466.00
2018-09-24T02:52:04.104Z,100477.00
2018-09-24T02:54:33.441Z,100478.00
2018-09-24T02:57:01.213Z,100483.00
2018-09-24T02:59:29.039Z,100485.00
2018-09-24T03:01:56.884Z,100489.00
2018-09-24T03:04:24.760Z,100495.00
2018-09-24T03:06:52.584Z,100502.00
2018-09-24T03:09:20.280Z,100506.00
2018-09-24T03:11:48.148Z,100500.00
2018-09-24T03:14:23.211Z,100514.00
2018-09-24T03:16:51.744Z,100511.00
2018-09-24T03:19:19.532Z,100519.00
2018-09-24T03:21:47.287Z,100509.00
2018-09-24T03:24:15.000Z,100521.00
2018-09-24T03:26:43.052Z,100521.00
2018-09-24T03:29:21.242Z,100536.00
2018-09-24T03:31:49.037Z,100530.00
2018-09-24T03:34:17.600Z,100520.00
2018-09-24T03:36:45.888Z,100531.00
2018-09-24T03:39:13.700Z,100543.00
2018-09-24T03:41:41.784Z,100548.00
2018-09-24T03:44:10.008Z,100537.00
2018-09-24T03:46:38.069Z,100535.00
2018-09-24T03:49:05.886Z,100549.00
2018-09-24T03:51:33.729Z,100543.00
2018-09-24T03:54:01.423Z,100547.00
2018-09-24T03:56:29.234Z,100560.00
2018-09-24T03:58:57.059Z,100551.00
2018-09-24T04:01:24.820Z,100551.00
2018-09-24T04:03:52.643Z,100554.00
2018-09-24T04:06:26.020Z,100561.00
2018-09-24T04:08:59.616Z,100562.00
2018-09-24T04:11:33.170Z,100556.00
2018-09-24T04:14:06.686Z,100566.00
2018-09-24T04:16:40.296Z,100558.00
2018-09-24T04:19:13.777Z,100571.00
2018-09-24T04:21:47.443Z,100570.00
2018-09-24T04:24:20.963Z,100573.00
2018-09-24T04:26:54.581Z,100577.00
2018-09-24T04:29:28.169Z,100581.00
2018-09-24T04:32:01.653Z,100571.00
2018-09-24T04:34:35.329Z,100581.00
2018-09-24T04:37:08.898Z,100577.00
2018-09-24T04:39:42.623Z,100576.00
2018-09-24T04:42:15.923Z,100581.00
2018-09-24T04:44:49.568Z,100583.00
2018-09-24T04:47:23.068Z,100598.00
2018-09-24T04:49:56.660Z,100594.00
2018-09-24T04:52:30.275Z,100599.00
2018-09-24T04:55:03.819Z,100605.00
2018-09-24T04:57:37.236Z,100615.00
2018-09-24T05:00:11.044Z,100621.00
2018-09-24T05:02:44.669Z,100616.00
2018-09-24T05:05:18.220Z,100612.00
2018-09-24T05:07:51.715Z,100617.00
2018-09-24T05:10:25.292Z,100631.00
2018-09-24T05:12:58.869Z,100626.00
2018-09-24T05:15:32.464Z,100626.00
2018-09-24T05:18:05.973Z,100633.00
2018-09-24T05:20:39.669Z,100634.00
2018-09-24T05:23:13.176Z,100637.00
2018-09-24T05:25:46.694Z,100645.00
2018-09-24T05:28:20.249Z,100652.00
2018-09-24T05:30:53.845Z,100652.00
2018-09-24T05:33:27.469Z,100649.00
2018-09-24T05:36:00.955Z,100655.00
2018-09-24T05:38:34.597Z,100656.00
2018-09-24T05:41:08.189Z,100670.00
2018-09-24T05:43:41.785Z,100687.00
2018-09-24T05:46:15.410Z,100669.00
2018-09-24T05:48:48.952Z,100674.00
2018-09-24T05:51:22.540Z,100682.00
2018-09-24T05:53:56.117Z,100677.00
2018-09-24T05:56:29.600Z,100693.00
2018-09-24T05:59:03.152Z,100695.00
2018-09-24T06:01:36.813Z,100690.00
2018-09-24T06:04:10.379Z,100700.00
2018-09-24T06:06:43.916Z,100697.00
2018-09-24T06:09:17.553Z,100709.00
2018-09-24T06:11:51.117Z,100710.00
2018-09-24T06:14:24.693Z,100727.00
2018-09-24T06:16:58.291Z,100736.00
2018-09-24T06:19:32.331Z,100724.00
2018-09-24T06:22:05.822Z,100738.00
2018-09-24T06:24:39.393Z,100743.00
2018-09-24T06:27:13.035Z,100740.00
2018-09-24T06:29:46.632Z,100739.00
2018-09-24T06:32:20.146Z,100744.00
2018-09-24T06:34:53.721Z,100751.00
2018-09-24T06:37:27.362Z,100761.00
2018-09-24T06:40:00.953Z,100760.00
2018-09-24T06:42:34.425Z,100760.00
2018-09-24T06:45:08.124Z,100762.00
2018-09-24T06:47:41.673Z,100770.00
2018-09-24T06:50:15.259Z,100775.00
2018-09-24T06:52:48.854Z,100787.00
2018-09-24T06:55:22.343Z,100785.00
2018-09-24T06:57:55.881Z,100788.00
2018-09-24T07:00:29.517Z,100799.00
2018-09-24T07:03:03.208Z,100795.00
2018-09-24T07:05:36.884Z,100797.00
2018-09-24T07:08:10.549Z,100797.00
2018-09-24T07:10:44.109Z,100804.00
2018-09-24T07:13:17.770Z,100814.00
2018-09-24T07:15:51.369Z,100820.00
2018-09-24T07:18:24.872Z,100826.00
2018-09-24T07:20:58.273Z,100819.00
2018-09-24T07:23:31.829Z,100834.00
2018-09-24T07:26:05.520Z,100826.00
2018-09-24T07:28:39.021Z,100862.00
2018-09-24T07:31:13.096Z,100838.00
2018-09-24T07:33:46.636Z,100851.00
2018-09-24T07:36:20.162Z,100853.00
2018-09-24T07:38:53.689Z,100853.00
2018-09-24T07:41:27.521Z,100863.00
2018-09-24T07:44:01.059Z,100864.00
2018-09-24T07:46:34.699Z,100865.00
2018-09-24T07:49:08.304Z,100884.00
2018-09-24T07:51:41.836Z,100888.00
2018-09-24T07:54:15.416Z,100888.00
2018-09-24T07:56:49.129Z,100890.00
2018-09-24T07:59:22.778Z,100890.00
2018-09-24T08:01:56.307Z,100900.00
2018-09-24T08:04:29.885Z,100901.00
2018-09-24T08:07:03.499Z,100901.00
2018-09-24T08:09:37.141Z,100896.00
2018-09-24T08:12:11.000Z,100915.00
2018-09-24T08:14:44.465Z,100905.00
2018-09-24T08:17:18.110Z,100916.00
2018-09-24T08:19:51.708Z,100930.00
2018-09-24T08:22:25.305Z,100930.00
2018-09-24T08:24:59.935Z,100928.00
2018-09-24T08:27:33.428Z,100943.00
2018-09-24T08:30:07.025Z,100943.00
2018-09-24T08:32:40.774Z,100944.00
2018-09-24T08:35:14.364Z,100951.00
2018-09-24T08:37:47.917Z,100949.00
2018-09-24T08:40:21.544Z,100947.00
2018-09-24T08:42:55.157Z,100945.00
2018-09-24T08:45:53.424Z,100944.00
2018-09-24T08:48:27.045Z,100947.00
2018-09-24T08:51:00.613Z,100956.00
2018-09-24T08:53:34.317Z,100965.00
2018-09-24T08:56:08.017Z,100964.00
2018-09-24T08:58:41.676Z,100967.00
2018-09-24T09:01:15.349Z,100979.00
2018-09-24T09:03:48.868Z,100970.00
2018-09-24T09:06:22.494Z,100976.00
2018-09-24T09:08:56.048Z,100982.00
2018-09-24T09:11:29.509Z,100999.00
2018-09-24T09:14:03.078Z,101010.00
2018-09-24T09:16:54.675Z,100989.00
2018-09-24T09:19:28.300Z,100999.00
2018-09-24T09:22:01.858Z,101003.00
2018-09-24T09:24:35.350Z,100992.00
2018-09-24T09:27:09.094Z,101005.00
2018-09-24T09:29:42.726Z,101023.00
2018-09-24T09:32:16.533Z,101016.00
2018-09-24T09:34:50.169Z,101023.00
2018-09-24T09:37:23.842Z,101012.00
2018-09-24T09:39:57.400Z,101017.00
2018-09-24T09:42:30.950Z,101032.00
2018-09-24T09:45:04.657Z,101039.00
2018-09-24T09:47:38.274Z,101039.00
2018-09-24T09:50:11.872Z,101032.00
2018-09-24T09:52:45.382Z,101035.00
2018-09-24T09:55:18.836Z,101042.00
2018-09-24T09:57:52.469Z,101029.00
2018-09-24T10:00:26.069Z,101037.00
2018-09-24T10:03:01.730Z,101032.00
2018-09-24T10:05:35.396Z,101020.00
2018-09-24T10:08:09.112Z,101035.00
2018-09-24T10:10:42.803Z,101029.00
2018-09-24T10:13:16.277Z,101032.00
2018-09-24T10:15:49.968Z,101041.00
2018-09-24T10:18:23.482Z,101034.00
2018-09-24T10:20:57.228Z,101054.00
2018-09-24T10:23:30.811Z,101045.00
2018-09-24T10:26:04.465Z,101059.00
2018-09-24T10:28:38.070Z,101082.00
2018-09-24T10:31:11.628Z,101070.00
2018-09-24T10:33:45.312Z,101053.00
2018-09-24T10:36:19.072Z,101066.00
2018-09-24T10:38:52.778Z,101060.00
2018-09-24T10:41:26.397Z,101071.00
2018-09-24T10:44:03.235Z,101081.00
2018-09-24T10:46:36.860Z,101086.00
2018-09-24T10:49:10.456Z,101091.00
2018-09-24T10:51:43.813Z,101086.00
2018-09-24T10:54:17.396Z,101080.00
2018-09-24T10:56:50.981Z,101067.00
2018-09-24T10:59:24.622Z,101112.00
2018-09-24T11:01:58.155Z,101112.00
2018-09-24T11:04:31.749Z,101093.00
2018-09-24T11:07:05.505Z,101113.00
2018-09-24T11:09:39.095Z,101095.00
2018-09-24T11:12:12.777Z,101102.00
2018-09-24T11:14:46.248Z,101072.00
2018-09-24T11:17:19.835Z,101092.00
2018-09-24T11:19:53.240Z,101092.00
2018-09-24T11:22:26.813Z,101102.00
2018-09-24T11:25:00.322Z,101100.00
2018-09-24T11:27:33.967Z,101108.00
2018-09-24T11:30:07.523Z,101148.00
2018-09-24T11:32:41.100Z,101136.00
2018-09-24T11:35:14.817Z,101126.00
2018-09-24T11:37:48.369Z,101113.00
2018-09-24T11:40:21.994Z,101110.00
2018-09-24T11:42:55.649Z,101110.00
2018-09-24T11:45:29.167Z,101108.00
2018-09-24T11:48:02.720Z,101111.00
2018-09-24T11:50:36.323Z,101111.00
2018-09-24T11:53:09.960Z,101112.00
2018-09-24T11:55:43.479Z,101109.00
2018-09-24T11:58:17.079Z,101101.00
2018-09-24T12:00:50.449Z,101103.00
2018-09-24T12:03:24.073Z,101093.00
2018-09-24T12:05:57.661Z,101104.00
2018-09-24T12:08:31.263Z,101108.00
2018-09-24T12:11:04.789Z,101113.00
2018-09-24T12:13:38.444Z,101114.00
2018-09-24T12:16:12.060Z,101116.00
2018-09-24T12:18:45.680Z,101120.00
2018-09-24T12:21:19.237Z,101116.00
2018-09-24T12:23:52.740Z,101120.00
2018-09-24T12:26:26.361Z,101129.00
2018-09-24T12:29:00.078Z,101124.00
2018-09-24T12:31:33.765Z,101132.00
2018-09-24T12:34:07.458Z,101131.00
2018-09-24T12:36:41.000Z,101136.00
2018-09-24T12:39:14.669Z,101138.00
2018-09-24T12:41:48.212Z,101136.00
2018-09-24T12:44:21.966Z,101144.00
2018-09-24T12:46:55.529Z,101140.00
2018-09-24T12:49:29.182Z,101135.00
2018-09-24T12:52:02.850Z,101157.00
2018-09-24T12:54:36.500Z,101140.00
2018-09-24T12:57:10.110Z,101151.00
2018-09-24T12:59:43.777Z,101140.00
2018-09-24T13:02:17.435Z,101123.00
2018-09-24T13:04:51.062Z,101134.00
2018-09-24T13:07:24.657Z,101156.00
2018-09-24T13:09:58.272Z,101142.00
2018-09-24T13:12:31.830Z,101137.00
2018-09-24T13:15:05.368Z,101148.00
2018-09-24T13:17:38.804Z,101151.00
2018-09-24T13:20:12.457Z,101147.00
2018-09-24T13:22:46.103Z,101144.00
2018-09-24T13:25:19.678Z,101148.00
2018-09-24T13:27:53.272Z,101139.00
2018-09-24T13:30:26.916Z,101140.00
2018-09-24T13:33:00.546Z,101147.00
2018-09-24T13:35:34.147Z,101148.00
2018-09-24T13:38:07.781Z,101156.00
2018-09-24T13:40:41.296Z,101138.00
2018-09-24T13:43:14.915Z,101135.00
2018-09-24T13:45:48.590Z,101142.00
2018-09-24T13:48:22.204Z,101159.00
2018-09-24T13:50:55.776Z,101157.00
2018-09-24T13:53:29.397Z,101176.00
2018-09-24T13:56:02.862Z,101158.00
2018-09-24T13:58:36.477Z,101162.00
2018-09-24T14:01:10.086Z,101154.00
2018-09-24T14:03:43.617Z,101175.00
2018-09-24T14:06:17.273Z,101167.00
2018-09-24T14:08:50.944Z,101173.00
2018-09-24T14:11:24.497Z,101174.00
2018-09-24T14:13:57.963Z,101174.00
2018-09-24T14:16:31.441Z,101177.00
2018-09-24T14:19:05.009Z,101182.00
2018-09-24T14:21:38.518Z,101180.00
2018-09-24T14:24:12.095Z,101181.00
2018-09-24T14:26:45.691Z,101178.00
2018-09-24T14:29:19.085Z,101176.00
2018-09-24T14:31:52.577Z,101191.00
2018-09-24T14:34:26.258Z,101193.00
2018-09-24T14:36:59.909Z,101190.00
2018-09-24T14:39:33.474Z,101172.00
2018-09-24T14:42:06.983Z,101190.00
2018-09-24T14:44:40.545Z,101187.00
2018-09-24T14:47:14.129Z,101184.00
2018-09-24T14:49:47.693Z,101192.00
2018-09-24T14:52:21.240Z,101189.00
2018-09-24T14:54:54.893Z,101201.00
2018-09-24T14:57:28.408Z,101201.00
2018-09-24T15:00:01.779Z,101203.00
2018-09-24T15:02:35.381Z,101209.00
2018-09-24T15:05:08.983Z,101197.00
2018-09-24T15:07:42.596Z,101211.00
2018-09-24T15:10:23.899Z,101208.00
2018-09-24T15:13:11.084Z,101207.00
2018-09-24T15:15:44.712Z,101207.00
2018-09-24T15:18:18.330Z,101219.00
2018-09-24T15:20:51.888Z,101220.00
2018-09-24T15:23:25.456Z,101217.00
2018-09-24T15:25:58.949Z,101221.00
2018-09-24T15:28:32.589Z,101216.00
2018-09-24T15:31:06.306Z,101223.00
2018-09-24T15:33:39.797Z,101217.00
2018-09-24T15:36:13.252Z,101214.00
2018-09-24T15:38:46.676Z,101216.00
2018-09-24T15:41:20.294Z,101224.00
2018-09-24T15:43:53.980Z,101209.00
2018-09-24T15:46:27.670Z,101215.00
2018-09-24T15:49:01.117Z,101222.00
2018-09-24T15:51:34.758Z,101233.00
2018-09-24T15:54:08.308Z,101213.00
2018-09-24T15:56:41.976Z,101224.00
2018-09-24T15:59:15.559Z,101219.00
2018-09-24T16:01:49.330Z,101208.00
2018-09-24T16:04:22.916Z,101224.00
2018-09-24T16:06:56.465Z,101221.00
2018-09-24T16:09:30.192Z,101226.00
2018-09-24T16:12:03.768Z,101221.00
2018-09-24T16:14:37.371Z,101233.00
2018-09-24T16:17:11.008Z,101222.00
2018-09-24T16:19:44.669Z,101220.00
2018-09-24T16:22:18.345Z,101223.00
2018-09-24T16:24:51.848Z,101234.00
2018-09-24T16:27:25.452Z,101210.00
2018-09-24T16:29:59.022Z,101223.00
2018-09-24T16:32:32.587Z,101229.00
2018-09-24T16:35:06.261Z,101232.00
2018-09-24T16:37:39.880Z,101233.00
2018-09-24T16:40:13.506Z,101249.00
2018-09-24T16:42:46.993Z,101241.00
2018-09-24T16:45:20.695Z,101264.00
2018-09-24T16:47:54.325Z,101260.00
2018-09-24T16:50:27.842Z,101263.00
2018-09-24T16:53:01.488Z,101258.00
2018-09-24T16:55:35.141Z,101261.00
2018-09-24T16:58:08.785Z,101262.00
2018-09-24T17:00:42.385Z,101265.00
2018-09-24T17:03:15.962Z,101275.00
2018-09-24T17:05:49.465Z,101284.00
2018-09-24T17:08:23.002Z,101267.00
2018-09-24T17:10:56.644Z,101273.00
2018-09-24T17:13:30.311Z,101268.00
2018-09-24T17:16:03.880Z,101282.00
2018-09-24T17:18:37.488Z,101287.00
2018-09-24T17:21:11.089Z,101277.00
2018-09-24T17:23:44.464Z,101278.00
2018-09-24T17:26:18.001Z,101272.00
2018-09-24T17:28:51.556Z,101278.00
2018-09-24T17:31:25.191Z,101276.00
2018-09-24T17:33:58.836Z,101280.00
2018-09-24T17:36:32.382Z,101283.00
2018-09-24T17:39:05.936Z,101294.00
2018-09-24T17:41:39.550Z,101303.00
2018-09-24T17:44:13.112Z,101296.00
2018-09-24T17:46:46.692Z,101309.00
2018-09-24T17:49:20.212Z,101306.00
2018-09-24T17:51:53.967Z,101304.00
2018-09-24T17:54:27.645Z,101300.00
2018-09-24T17:57:01.277Z,101304.00
2018-09-24T17:59:34.874Z,101301.00
2018-09-24T18:02:08.409Z,101313.00
2018-09-24T18:04:41.892Z,101323.00
2018-09-24T18:07:15.365Z,101322.00
2018-09-24T18:09:49.090Z,101338.00
2018-09-24T18:12:22.636Z,101335.00
2018-09-24T18:14:56.230Z,101334.00
2018-09-24T18:17:29.813Z,101337.00
2018-09-24T18:20:07.237Z,101348.00
2018-09-24T18:22:40.837Z,101352.00
2018-09-24T18:25:14.490Z,101352.00
2018-09-24T18:27:47.977Z,101369.00
2018-09-24T18:30:21.598Z,101367.00
2018-09-24T18:32:55.231Z,101372.00
2018-09-24T18:35:28.829Z,101374.00
2018-09-24T18:38:02.360Z,101381.00
2018-09-24T18:40:35.921Z,101390.00
2018-09-24T18:43:09.611Z,101391.00
2018-09-24T18:45:43.200Z,101388.00
2018-09-24T18:48:16.720Z,101393.00
2018-09-24T18:50:50.191Z,101403.00
2018-09-24T18:53:23.787Z,101399.00
2018-09-24T18:55:57.407Z,101394.00
2018-09-24T18:58:31.079Z,101408.00
2018-09-24T19:01:04.687Z,101409.00
2018-09-24T19:03:38.313Z,101409.00
2018-09-24T19:06:12.356Z,101405.00
2018-09-24T19:08:45.925Z,101408.00
2018-09-24T19:11:27.704Z,101404.00
2018-09-24T19:13:53.017Z,101415.00
2018-09-24T19:16:26.576Z,101408.00
2018-09-24T19:19:00.221Z,101422.00
2018-09-24T19:21:33.933Z,101410.00
2018-09-24T19:24:07.506Z,101417.00
2018-09-24T19:26:41.144Z,101419.00
2018-09-24T19:29:14.795Z,101418.00
2018-09-24T19:31:48.454Z,101426.00
2018-09-24T19:34:25.169Z,101430.00
2018-09-24T19:36:58.824Z,101433.00
2018-09-24T19:39:32.325Z,101437.00
2018-09-24T19:42:06.015Z,101438.00
2018-09-24T19:48:02.709Z,101452.00
2018-09-24T19:50:36.282Z,101444.00
2018-09-24T19:53:09.913Z,101455.00
2018-09-24T19:55:43.448Z,101449.00
2018-09-24T19:58:36.855Z,101455.00
2018-09-24T20:01:10.311Z,101454.00
2018-09-24T20:03:43.843Z,101456.00
2018-09-24T20:06:17.406Z,101458.00
2018-09-24T20:08:50.973Z,101464.00
2018-09-24T20:11:24.564Z,101462.00
2018-09-24T20:13:58.067Z,101460.00
2018-09-24T20:16:31.681Z,101474.00
2018-09-24T20:19:05.391Z,101474.00
2018-09-24T20:21:39.076Z,101487.00
2018-09-24T20:24:12.740Z,101481.00
2018-09-24T20:26:46.204Z,101482.00
2018-09-24T20:29:19.704Z,101487.00
2018-09-24T20:31:53.332Z,101486.00
2018-09-24T20:34:26.906Z,101491.00
2018-09-24T20:37:00.595Z,101481.00
2018-09-24T20:39:34.256Z,101490.00
2018-09-24T20:42:07.766Z,101498.00
2018-09-24T20:44:41.344Z,101507.00
2018-09-24T20:47:14.880Z,101497.00
2018-09-24T20:49:48.483Z,101509.00
2018-09-24T20:52:22.003Z,101501.00
2018-09-24T20:54:55.536Z,101510.00
2018-09-24T20:57:29.109Z,101509.00
2018-09-24T21:00:02.622Z,101528.00
2018-09-24T21:02:36.180Z,101519.00
2018-09-24T21:05:09.795Z,101513.00
2018-09-24T21:07:43.296Z,101524.00
2018-09-24T21:10:16.975Z,101525.00
2018-09-24T21:12:50.640Z,101525.00
2018-09-24T21:15:24.219Z,101529.00
2018-09-24T21:17:57.868Z,101526.00
2018-09-24T21:20:31.363Z,101531.00
2018-09-24T21:23:04.807Z,101535.00
2018-09-24T21:25:38.351Z,101541.00
2018-09-24T21:28:11.953Z,101540.00
2018-09-24T21:30:45.486Z,101548.00
2018-09-24T21:33:18.986Z,101551.00
2018-09-24T21:35:52.655Z,101555.00
2018-09-24T21:38:26.227Z,101557.00
2018-09-24T21:40:59.904Z,101562.00
2018-09-24T21:43:54.430Z,101566.00
2018-09-24T21:46:28.050Z,101570.00
2018-09-24T21:49:05.092Z,101575.00
2018-09-24T21:51:45.017Z,101571.00
2018-09-24T21:57:23.741Z,101587.00
2018-09-24T21:59:57.256Z,101577.00
2018-09-24T22:02:30.957Z,101585.00
2018-09-24T22:05:04.569Z,101592.00
2018-09-24T22:07:38.072Z,101596.00
2018-09-24T22:10:11.693Z,101603.00
2018-09-24T22:12:45.161Z,101598.00
2018-09-24T22:15:18.668Z,101607.00
2018-09-24T22:17:52.249Z,101614.00
2018-09-24T22:20:25.820Z,101622.00
2018-09-24T22:22:59.434Z,101620.00
2018-09-24T22:25:33.052Z,101625.00
2018-09-24T22:28:06.557Z,101627.00
2018-09-24T22:30:39.932Z,101635.00
2018-09-24T22:33:13.556Z,101638.00
2018-09-24T22:35:54.073Z,101647.00
2018-09-24T22:38:27.526Z,101631.00
2018-09-24T22:41:01.276Z,101633.00
2018-09-24T22:43:34.878Z,101652.00
2018-09-24T22:46:08.489Z,101643.00
2018-09-24T22:48:42.053Z,101644.00
2018-09-24T22:51:15.573Z,101644.00
2018-09-24T22:53:49.264Z,101653.00
2018-09-24T22:56:22.933Z,101648.00
2018-09-24T22:58:56.602Z,101652.00
2018-09-24T23:01:30.232Z,101658.00
2018-09-24T23:04:03.864Z,101657.00
2018-09-24T23:06:37.604Z,101662.00
2018-09-24T23:09:13.209Z,101651.00
2018-09-24T23:11:47.085Z,101664.00
2018-09-24T23:14:20.763Z,101656.00
2018-09-24T23:16:54.395Z,101667.00
2018-09-24T23:19:28.126Z,101663.00
2018-09-24T23:22:01.757Z,101667.00
2018-09-24T23:24:35.372Z,101674.00
2018-09-24T23:27:08.769Z,101679.00
2018-09-24T23:29:42.415Z,101673.00
2018-09-24T23:32:16.037Z,101684.00
2018-09-24T23:34:49.672Z,101676.00
2018-09-24T23:37:23.391Z,101690.00
2018-09-24T23:39:56.956Z,101675.00
2018-09-24T23:42:30.667Z,101678.00
2018-09-24T23:45:04.277Z,101690.00
2018-09-24T23:47:37.885Z,101691.00
2018-09-24T23:50:11.717Z,101687.00
2018-09-24T23:52:45.158Z,101698.00
2018-09-24T23:55:18.834Z,101695.00
2018-09-24T23:57:52.372Z,101697.00
